sensor_id;sensor_type;location;lat;lon;timestamp;pressure;altitude;pressure_sealevel;temperature;humidity
59757;BME280;45631;51.962;5.974;2023-01-27T00:01:05;102346.66;;;3.36;100.00
59757;BME280;45631;51.962;5.974;2023-01-27T00:03:34;102347.50;;;3.38;100.00
59757;BME280;45631;51.962;5.974;2023-01-27T00:06:03;102357.06;;;3.35;100.00
59757;BME280;45631;51.962;5.974;2023-01-27T00:08:32;102347.53;;;3.34;100.00
59757;BME280;45631;51.962;5.974;2023-01-27T00:11:02;102344.03;;;3.36;100.00
59757;BME280;45631;51.962;5.974;2023-01-27T00:13:47;102349.22;;;3.38;100.00
59757;BME280;45631;51.962;5.974;2023-01-27T00:16:15;102353.59;;;3.36;100.00
59757;BME280;45631;51.962;5.974;2023-01-27T00:18:43;102346.72;;;3.30;100.00
59757;BME280;45631;51.962;5.974;2023-01-27T00:21:11;102355.34;;;3.35;100.00
59757;BME280;45631;51.962;5.974;2023-01-27T00:23:57;102341.56;;;3.29;100.00
59757;BME280;45631;51.962;5.974;2023-01-27T00:26:44;102349.34;;;3.30;100.00
59757;BME280;45631;51.962;5.974;2023-01-27T00:29:12;102350.16;;;3.35;100.00
59757;BME280;45631;51.962;5.974;2023-01-27T00:31:40;102350.19;;;3.31;100.00
59757;BME280;45631;51.962;5.974;2023-01-27T00:34:26;102352.88;;;3.21;100.00
59757;BME280;45631;51.962;5.974;2023-01-27T00:36:54;102347.66;;;3.21;100.00
59757;BME280;45631;51.962;5.974;2023-01-27T00:39:22;102342.50;;;3.18;100.00
59757;BME280;45631;51.962;5.974;2023-01-27T00:41:51;102346.84;;;3.19;100.00
59757;BME280;45631;51.962;5.974;2023-01-27T00:44:21;102347.72;;;3.18;100.00
59757;BME280;45631;51.962;5.974;2023-01-27T00:46:52;102354.66;;;3.18;100.00
59757;BME280;45631;51.962;5.974;2023-01-27T00:49:20;102350.31;;;3.18;100.00
59757;BME280;45631;51.962;5.974;2023-01-27T00:51:48;102352.06;;;3.18;100.00
59757;BME280;45631;51.962;5.974;2023-01-27T00:54:16;102360.72;;;3.18;100.00
59757;BME280;45631;51.962;5.974;2023-01-27T00:56:44;102357.28;;;3.16;100.00
59757;BME280;45631;51.962;5.974;2023-01-27T00:59:14;102354.69;;;3.16;100.00
59757;BME280;45631;51.962;5.974;2023-01-27T01:01:42;102351.19;;;3.16;100.00
59757;BME280;45631;51.962;5.974;2023-01-27T01:04:10;102353.81;;;3.14;100.00
59757;BME280;45631;51.962;5.974;2023-01-27T01:06:38;102362.50;;;3.13;100.00
59757;BME280;45631;51.962;5.974;2023-01-27T01:09:06;102358.19;;;3.11;100.00
59757;BME280;45631;51.962;5.974;2023-01-27T01:11:34;102363.41;;;3.08;100.00
59757;BME280;45631;51.962;5.974;2023-01-27T01:14:02;102365.97;;;3.11;100.00
59757;BME280;45631;51.962;5.974;2023-01-27T01:16:32;102360.78;;;3.14;100.00
59757;BME280;45631;51.962;5.974;2023-01-27T01:19:00;102360.78;;;3.12;100.00
59757;BME280;45631;51.962;5.974;2023-01-27T01:21:28;102358.22;;;3.08;100.00
59757;BME280;45631;51.962;5.974;2023-01-27T01:23:56;102366.88;;;3.07;100.00
59757;BME280;45631;51.962;5.974;2023-01-27T01:26:24;102377.31;;;3.03;100.00
59757;BME280;45631;51.962;5.974;2023-01-27T01:28:52;102369.53;;;3.03;100.00
59757;BME280;45631;51.962;5.974;2023-01-27T01:31:20;102381.63;;;3.06;100.00
59757;BME280;45631;51.962;5.974;2023-01-27T01:33:50;102378.16;;;3.04;100.00
59757;BME280;45631;51.962;5.974;2023-01-27T01:36:19;102379.91;;;3.03;100.00
59757;BME280;45631;51.962;5.974;2023-01-27T01:38:48;102387.78;;;2.97;100.00
59757;BME280;45631;51.962;5.974;2023-01-27T01:41:18;102385.13;;;3.02;100.00
59757;BME280;45631;51.962;5.974;2023-01-27T01:43:46;102384.28;;;3.01;100.00
59757;BME280;45631;51.962;5.974;2023-01-27T01:46:15;102382.56;;;3.00;100.00
59757;BME280;45631;51.962;5.974;2023-01-27T01:48:46;102383.38;;;3.04;100.00
59757;BME280;45631;51.962;5.974;2023-01-27T01:51:20;102388.59;;;3.02;100.00
59757;BME280;45631;51.962;5.974;2023-01-27T01:53:52;102385.97;;;3.02;100.00
59757;BME280;45631;51.962;5.974;2023-01-27T01:56:26;102390.28;;;3.05;100.00
59757;BME280;45631;51.962;5.974;2023-01-27T01:58:57;102386.88;;;3.03;100.00
59757;BME280;45631;51.962;5.974;2023-01-27T02:01:29;102388.56;;;3.07;100.00
59757;BME280;45631;51.962;5.974;2023-01-27T02:04:00;102385.97;;;3.06;100.00
59757;BME280;45631;51.962;5.974;2023-01-27T02:06:36;102385.97;;;3.02;100.00
59757;BME280;45631;51.962;5.974;2023-01-27T02:09:08;102392.06;;;3.00;100.00
59757;BME280;45631;51.962;5.974;2023-01-27T02:11:37;102390.38;;;2.97;100.00
59757;BME280;45631;51.962;5.974;2023-01-27T02:14:05;102389.44;;;3.04;100.00
59757;BME280;45631;51.962;5.974;2023-01-27T02:16:33;102393.75;;;3.09;100.00
59757;BME280;45631;51.962;5.974;2023-01-27T02:19:01;102391.19;;;3.02;100.00
59757;BME280;45631;51.962;5.974;2023-01-27T02:21:31;102389.47;;;3.03;100.00
59757;BME280;45631;51.962;5.974;2023-01-27T02:24:01;102386.88;;;3.00;100.00
59757;BME280;45631;51.962;5.974;2023-01-27T02:26:39;102393.81;;;3.01;100.00
59757;BME280;45631;51.962;5.974;2023-01-27T02:29:11;102392.06;;;3.00;100.00
59757;BME280;45631;51.962;5.974;2023-01-27T02:31:39;102393.88;;;2.95;100.00
59757;BME280;45631;51.962;5.974;2023-01-27T02:34:10;102402.56;;;2.87;100.00
59757;BME280;45631;51.962;5.974;2023-01-27T02:36:44;102397.38;;;2.87;100.00
59757;BME280;45631;51.962;5.974;2023-01-27T02:39:16;102403.38;;;2.97;100.00
59757;BME280;45631;51.962;5.974;2023-01-27T02:41:49;102396.50;;;2.90;100.00
59757;BME280;45631;51.962;5.974;2023-01-27T02:44:18;102400.84;;;2.90;100.00
59757;BME280;45631;51.962;5.974;2023-01-27T02:46:46;102401.69;;;2.93;100.00
59757;BME280;45631;51.962;5.974;2023-01-27T02:49:14;102406.03;;;2.91;100.00
59757;BME280;45631;51.962;5.974;2023-01-27T02:51:42;102412.06;;;2.92;100.00
59757;BME280;45631;51.962;5.974;2023-01-27T02:54:11;102405.19;;;2.89;100.00
59757;BME280;45631;51.962;5.974;2023-01-27T02:56:39;102407.72;;;2.94;100.00
59757;BME280;45631;51.962;5.974;2023-01-27T02:59:08;102399.09;;;2.88;100.00
59757;BME280;45631;51.962;5.974;2023-01-27T03:01:36;102406.06;;;2.86;100.00
59757;BME280;45631;51.962;5.974;2023-01-27T03:04:05;102410.38;;;2.86;100.00
59757;BME280;45631;51.962;5.974;2023-01-27T03:06:34;102419.06;;;2.83;100.00
59757;BME280;45631;51.962;5.974;2023-01-27T03:09:03;102414.75;;;2.81;100.00
59757;BME280;45631;51.962;5.974;2023-01-27T03:11:31;102409.56;;;2.79;100.00
59757;BME280;45631;51.962;5.974;2023-01-27T03:14:18;102413.03;;;2.81;100.00
59757;BME280;45631;51.962;5.974;2023-01-27T03:16:46;102421.66;;;2.86;100.00
59757;BME280;45631;51.962;5.974;2023-01-27T03:19:32;102419.00;;;2.91;100.00
59757;BME280;45631;51.962;5.974;2023-01-27T03:22:00;102416.44;;;2.88;100.00
59757;BME280;45631;51.962;5.974;2023-01-27T03:24:28;102423.38;;;2.87;100.00
59757;BME280;45631;51.962;5.974;2023-01-27T03:26:56;102418.19;;;2.86;100.00
59757;BME280;45631;51.962;5.974;2023-01-27T03:29:26;102416.47;;;2.83;100.00
59757;BME280;45631;51.962;5.974;2023-01-27T03:32:12;102414.72;;;2.85;100.00
59757;BME280;45631;51.962;5.974;2023-01-27T03:34:40;102434.66;;;2.82;100.00
59757;BME280;45631;51.962;5.974;2023-01-27T03:37:08;102439.88;;;2.80;100.00
59757;BME280;45631;51.962;5.974;2023-01-27T03:39:53;102434.69;;;2.80;100.00
59757;BME280;45631;51.962;5.974;2023-01-27T03:42:38;102438.06;;;2.93;100.00
59757;BME280;45631;51.962;5.974;2023-01-27T03:45:25;102433.75;;;2.87;100.00
59757;BME280;45631;51.962;5.974;2023-01-27T03:48:11;102438.16;;;2.82;100.00
59757;BME280;45631;51.962;5.974;2023-01-27T03:50:39;102442.44;;;2.83;100.00
59757;BME280;45631;51.962;5.974;2023-01-27T03:53:09;102436.38;;;2.84;100.00
59757;BME280;45631;51.962;5.974;2023-01-27T03:55:37;102428.56;;;2.89;100.00
59757;BME280;45631;51.962;5.974;2023-01-27T03:58:16;102426.78;;;2.94;100.00
59757;BME280;45631;51.962;5.974;2023-01-27T04:00:49;102431.19;;;2.89;100.00
59757;BME280;45631;51.962;5.974;2023-01-27T04:03:19;102437.25;;;2.88;100.00
59757;BME280;45631;51.962;5.974;2023-01-27T04:06:06;102436.38;;;2.89;100.00
59757;BME280;45631;51.962;5.974;2023-01-27T04:08:52;102433.75;;;2.87;100.00
59757;BME280;45631;51.962;5.974;2023-01-27T04:11:20;102433.72;;;2.95;100.00
59757;BME280;45631;51.962;5.974;2023-01-27T04:14:07;102436.31;;;2.94;100.00
59757;BME280;45631;51.962;5.974;2023-01-27T04:16:37;102438.06;;;2.92;100.00
59757;BME280;45631;51.962;5.974;2023-01-27T04:19:07;102438.97;;;2.91;100.00
59757;BME280;45631;51.962;5.974;2023-01-27T04:21:36;102445.03;;;2.90;100.00
59757;BME280;45631;51.962;5.974;2023-01-27T04:24:04;102457.97;;;2.93;100.00
59757;BME280;45631;51.962;5.974;2023-01-27T04:26:34;102440.69;;;2.93;100.00
59757;BME280;45631;51.962;5.974;2023-01-27T04:29:03;102437.19;;;2.93;100.00
59757;BME280;45631;51.962;5.974;2023-01-27T04:31:33;102457.97;;;2.93;100.00
59757;BME280;45631;51.962;5.974;2023-01-27T04:34:02;102451.03;;;2.98;100.00
59757;BME280;45631;51.962;5.974;2023-01-27T04:36:30;102451.00;;;3.01;100.00
59757;BME280;45631;51.962;5.974;2023-01-27T04:38:59;102450.16;;;2.99;100.00
59757;BME280;45631;51.962;5.974;2023-01-27T04:41:27;102460.53;;;3.02;100.00
59757;BME280;45631;51.962;5.974;2023-01-27T04:43:55;102464.84;;;3.00;100.00
59757;BME280;45631;51.962;5.974;2023-01-27T04:46:23;102469.19;;;3.01;100.00
59757;BME280;45631;51.962;5.974;2023-01-27T04:48:51;102466.59;;;3.01;100.00
59757;BME280;45631;51.962;5.974;2023-01-27T04:51:21;102458.78;;;3.06;100.00
59757;BME280;45631;51.962;5.974;2023-01-27T04:53:49;102457.97;;;2.97;100.00
59757;BME280;45631;51.962;5.974;2023-01-27T04:56:22;102467.44;;;3.00;100.00
59757;BME280;45631;51.962;5.974;2023-01-27T04:58:51;102462.28;;;2.98;100.00
59757;BME280;45631;51.962;5.974;2023-01-27T05:01:19;102459.66;;;3.01;100.00
59757;BME280;45631;51.962;5.974;2023-01-27T05:03:47;102456.19;;;3.01;100.00
59757;BME280;45631;51.962;5.974;2023-01-27T05:06:16;102461.38;;;3.02;100.00
59757;BME280;45631;51.962;5.974;2023-01-27T05:08:45;102470.94;;;2.99;100.00
59757;BME280;45631;51.962;5.974;2023-01-27T05:11:14;102470.94;;;3.00;100.00
59757;BME280;45631;51.962;5.974;2023-01-27T05:13:42;102469.19;;;3.01;100.00
59757;BME280;45631;51.962;5.974;2023-01-27T05:16:12;102466.56;;;3.07;100.00
59757;BME280;45631;51.962;5.974;2023-01-27T05:18:42;102461.34;;;3.09;100.00
59757;BME280;45631;51.962;5.974;2023-01-27T05:21:12;102462.19;;;3.09;100.00
59757;BME280;45631;51.962;5.974;2023-01-27T05:23:40;102457.88;;;3.08;100.00
59757;BME280;45631;51.962;5.974;2023-01-27T05:26:11;102455.28;;;3.07;100.00
59757;BME280;45631;51.962;5.974;2023-01-27T05:28:41;102455.28;;;3.07;100.00
59757;BME280;45631;51.962;5.974;2023-01-27T05:31:11;102461.38;;;3.06;100.00
59757;BME280;45631;51.962;5.974;2023-01-27T05:33:41;102457.88;;;3.10;100.00
59757;BME280;45631;51.962;5.974;2023-01-27T05:36:11;102453.53;;;3.09;100.00
59757;BME280;45631;51.962;5.974;2023-01-27T05:38:40;102467.38;;;3.12;100.00
59757;BME280;45631;51.962;5.974;2023-01-27T05:41:11;102467.34;;;3.15;100.00
59757;BME280;45631;51.962;5.974;2023-01-27T05:43:41;102467.34;;;3.15;100.00
59757;BME280;45631;51.962;5.974;2023-01-27T05:46:11;102466.44;;;3.19;100.00
59757;BME280;45631;51.962;5.974;2023-01-27T05:48:42;102465.59;;;3.17;100.00
59757;BME280;45631;51.962;5.974;2023-01-27T05:51:11;102471.66;;;3.15;100.00
59757;BME280;45631;51.962;5.974;2023-01-27T05:53:41;102474.28;;;3.15;100.00
59757;BME280;45631;51.962;5.974;2023-01-27T05:56:12;102477.75;;;3.15;100.00
59757;BME280;45631;51.962;5.974;2023-01-27T05:58:40;102483.78;;;3.19;100.00
59757;BME280;45631;51.962;5.974;2023-01-27T06:01:10;102480.34;;;3.17;100.00
59757;BME280;45631;51.962;5.974;2023-01-27T06:03:39;102486.34;;;3.25;100.00
59757;BME280;45631;51.962;5.974;2023-01-27T06:06:08;102489.88;;;3.16;100.00
59757;BME280;45631;51.962;5.974;2023-01-27T06:08:37;102486.44;;;3.11;100.00
59757;BME280;45631;51.962;5.974;2023-01-27T06:11:06;102489.03;;;3.13;100.00
59757;BME280;45631;51.962;5.974;2023-01-27T06:13:36;102495.06;;;3.18;100.00
59757;BME280;45631;51.962;5.974;2023-01-27T06:16:07;102502.88;;;3.15;100.00
59757;BME280;45631;51.962;5.974;2023-01-27T06:18:36;102501.16;;;3.11;100.00
59757;BME280;45631;51.962;5.974;2023-01-27T06:21:08;102506.38;;;3.12;100.00
59757;BME280;45631;51.962;5.974;2023-01-27T06:23:38;102511.63;;;3.06;100.00
59757;BME280;45631;51.962;5.974;2023-01-27T06:26:09;102508.16;;;3.04;100.00
59757;BME280;45631;51.962;5.974;2023-01-27T06:28:39;102513.34;;;3.07;100.00
59757;BME280;45631;51.962;5.974;2023-01-27T06:31:08;102515.09;;;3.02;100.00
59757;BME280;45631;51.962;5.974;2023-01-27T06:33:37;102509.06;;;2.97;100.00
59757;BME280;45631;51.962;5.974;2023-01-27T06:36:09;102508.25;;;2.88;100.00
59757;BME280;45631;51.962;5.974;2023-01-27T06:38:37;102515.16;;;2.93;100.00
59757;BME280;45631;51.962;5.974;2023-01-27T06:41:06;102518.63;;;2.96;100.00
59757;BME280;45631;51.962;5.974;2023-01-27T06:43:34;102522.97;;;2.93;100.00
59757;BME280;45631;51.962;5.974;2023-01-27T06:46:03;102532.50;;;2.94;100.00
59757;BME280;45631;51.962;5.974;2023-01-27T06:48:32;102524.69;;;2.95;100.00
59757;BME280;45631;51.962;5.974;2023-01-27T06:51:00;102522.09;;;2.92;100.00
59757;BME280;45631;51.962;5.974;2023-01-27T06:53:28;102516.88;;;2.97;100.00
59757;BME280;45631;51.962;5.974;2023-01-27T06:55:58;102517.78;;;2.91;100.00
59757;BME280;45631;51.962;5.974;2023-01-27T06:58:27;102523.91;;;2.82;100.00
59757;BME280;45631;51.962;5.974;2023-01-27T07:00:55;102527.41;;;2.78;100.00
59757;BME280;45631;51.962;5.974;2023-01-27T07:03:28;102525.69;;;2.76;100.00
59757;BME280;45631;51.962;5.974;2023-01-27T07:05:56;102528.25;;;2.80;100.00
59757;BME280;45631;51.962;5.974;2023-01-27T07:08:24;102530.00;;;2.78;100.00
59757;BME280;45631;51.962;5.974;2023-01-27T07:10:52;102533.47;;;2.74;100.00
59757;BME280;45631;51.962;5.974;2023-01-27T07:13:20;102535.25;;;2.66;100.00
59757;BME280;45631;51.962;5.974;2023-01-27T07:15:53;102539.59;;;2.61;100.00
59757;BME280;45631;51.962;5.974;2023-01-27T07:18:21;102541.34;;;2.59;100.00
59757;BME280;45631;51.962;5.974;2023-01-27T07:20:51;102545.69;;;2.52;100.00
59757;BME280;45631;51.962;5.974;2023-01-27T07:23:19;102552.63;;;2.50;100.00
59757;BME280;45631;51.962;5.974;2023-01-27T07:25:50;102562.16;;;2.49;100.00
59757;BME280;45631;51.962;5.974;2023-01-27T07:28:18;102564.75;;;2.49;100.00
59757;BME280;45631;51.962;5.974;2023-01-27T07:30:47;102558.69;;;2.52;100.00
59757;BME280;45631;51.962;5.974;2023-01-27T07:33:15;102571.66;;;2.53;100.00
59757;BME280;45631;51.962;5.974;2023-01-27T07:35:43;102563.88;;;2.50;100.00
59757;BME280;45631;51.962;5.974;2023-01-27T07:38:17;102563.00;;;2.53;100.00
59757;BME280;45631;51.962;5.974;2023-01-27T07:40:45;102563.88;;;2.50;100.00
59757;BME280;45631;51.962;5.974;2023-01-27T07:43:13;102572.53;;;2.48;100.00
59757;BME280;45631;51.962;5.974;2023-01-27T07:45:41;102570.78;;;2.54;100.00
59757;BME280;45631;51.962;5.974;2023-01-27T07:48:10;102578.59;;;2.53;100.00
59757;BME280;45631;51.962;5.974;2023-01-27T07:50:39;102573.38;;;2.59;100.00
59757;BME280;45631;51.962;5.974;2023-01-27T07:53:09;102576.81;;;2.61;100.00
59757;BME280;45631;51.962;5.974;2023-01-27T07:55:39;102582.91;;;2.56;100.00
59757;BME280;45631;51.962;5.974;2023-01-27T07:58:08;102582.06;;;2.55;100.00
59757;BME280;45631;51.962;5.974;2023-01-27T08:00:36;102575.13;;;2.54;100.00
59757;BME280;45631;51.962;5.974;2023-01-27T08:03:05;102575.97;;;2.58;100.00
59757;BME280;45631;51.962;5.974;2023-01-27T08:05:34;102581.16;;;2.58;100.00
59757;BME280;45631;51.962;5.974;2023-01-27T08:08:04;102575.09;;;2.60;100.00
59757;BME280;45631;51.962;5.974;2023-01-27T08:10:34;102573.38;;;2.62;100.00
59757;BME280;45631;51.962;5.974;2023-01-27T08:13:04;102586.34;;;2.65;100.00
59757;BME280;45631;51.962;5.974;2023-01-27T08:15:32;102577.69;;;2.63;100.00
59757;BME280;45631;51.962;5.974;2023-01-27T08:18:01;102588.09;;;2.65;100.00
59757;BME280;45631;51.962;5.974;2023-01-27T08:20:29;102600.19;;;2.63;100.00
59757;BME280;45631;51.962;5.974;2023-01-27T08:23:01;102598.47;;;2.65;100.00
59757;BME280;45631;51.962;5.974;2023-01-27T08:25:29;102591.53;;;2.70;100.00
59757;BME280;45631;51.962;5.974;2023-01-27T08:27:57;102603.66;;;2.68;100.00
59757;BME280;45631;51.962;5.974;2023-01-27T08:30:26;102614.03;;;2.68;100.00
59757;BME280;45631;51.962;5.974;2023-01-27T08:32:55;102612.31;;;2.67;100.00
59757;BME280;45631;51.962;5.974;2023-01-27T08:35:23;102612.31;;;2.70;100.00
59757;BME280;45631;51.962;5.974;2023-01-27T08:37:51;102618.38;;;2.70;100.00
59757;BME280;45631;51.962;5.974;2023-01-27T08:40:19;102620.97;;;2.70;100.00
59757;BME280;45631;51.962;5.974;2023-01-27T08:42:49;102621.84;;;2.68;100.00
59757;BME280;45631;51.962;5.974;2023-01-27T08:45:17;102627.91;;;2.65;100.00
59757;BME280;45631;51.962;5.974;2023-01-27T08:47:46;102621.81;;;2.71;100.00
59757;BME280;45631;51.962;5.974;2023-01-27T08:50:15;102614.03;;;2.68;100.00
59757;BME280;45631;51.962;5.974;2023-01-27T08:52:43;102627.91;;;2.67;100.00
59757;BME280;45631;51.962;5.974;2023-01-27T08:55:11;102620.97;;;2.72;100.00
59757;BME280;45631;51.962;5.974;2023-01-27T08:57:41;102626.13;;;2.77;100.00
59757;BME280;45631;51.962;5.974;2023-01-27T09:00:10;102627.00;;;2.71;100.00
59757;BME280;45631;51.962;5.974;2023-01-27T09:02:40;102626.13;;;2.75;100.00
59757;BME280;45631;51.962;5.974;2023-01-27T09:05:13;102627.84;;;2.79;100.00
59757;BME280;45631;51.962;5.974;2023-01-27T09:07:46;102627.03;;;2.74;100.00
59757;BME280;45631;51.962;5.974;2023-01-27T09:10:14;102645.19;;;2.71;100.00
59757;BME280;45631;51.962;5.974;2023-01-27T09:12:43;102634.81;;;2.74;100.00
59757;BME280;45631;51.962;5.974;2023-01-27T09:15:12;102638.25;;;2.76;100.00
59757;BME280;45631;51.962;5.974;2023-01-27T09:17:43;102659.09;;;2.70;100.00
59757;BME280;45631;51.962;5.974;2023-01-27T09:20:14;102654.75;;;2.69;100.00
59757;BME280;45631;51.962;5.974;2023-01-27T09:22:42;102655.63;;;2.68;100.00
59757;BME280;45631;51.962;5.974;2023-01-27T09:25:13;102660.78;;;2.71;100.00
59757;BME280;45631;51.962;5.974;2023-01-27T09:27:42;102673.81;;;2.74;100.00
59757;BME280;45631;51.962;5.974;2023-01-27T09:30:12;102670.31;;;2.72;100.00
59757;BME280;45631;51.962;5.974;2023-01-27T09:32:41;102665.13;;;2.78;100.00
59757;BME280;45631;51.962;5.974;2023-01-27T09:35:10;102677.22;;;2.81;100.00
59757;BME280;45631;51.962;5.974;2023-01-27T09:37:42;102671.19;;;2.77;100.00
59757;BME280;45631;51.962;5.974;2023-01-27T09:40:20;102672.91;;;2.81;100.00
59757;BME280;45631;51.962;5.974;2023-01-27T09:43:13;102675.50;;;2.83;100.00
59757;BME280;45631;51.962;5.974;2023-01-27T09:45:58;102665.06;;;2.87;100.00
59757;BME280;45631;51.962;5.974;2023-01-27T09:48:41;102673.75;;;2.86;100.00
59757;BME280;45631;51.962;5.974;2023-01-27T09:51:18;102675.47;;;2.84;100.00
59757;BME280;45631;51.962;5.974;2023-01-27T09:54:05;102667.66;;;2.87;100.00
59757;BME280;45631;51.962;5.974;2023-01-27T09:56:51;102669.38;;;2.90;100.00
59757;BME280;45631;51.962;5.974;2023-01-27T09:59:31;102678.06;;;2.87;100.00
59757;BME280;45631;51.962;5.974;2023-01-27T10:02:06;102674.56;;;2.92;100.00
59757;BME280;45631;51.962;5.974;2023-01-27T10:04:56;102672.88;;;2.92;100.00
59757;BME280;45631;51.962;5.974;2023-01-27T10:07:38;102665.91;;;2.96;100.00
59757;BME280;45631;51.962;5.974;2023-01-27T10:10:21;102664.13;;;3.04;100.00
59757;BME280;45631;51.962;5.974;2023-01-27T10:13:02;102669.34;;;3.01;100.00
59757;BME280;45631;51.962;5.974;2023-01-27T10:15:45;102672.81;;;3.00;100.00
59757;BME280;45631;51.962;5.974;2023-01-27T10:18:27;102667.63;;;3.00;100.00
59757;BME280;45631;51.962;5.974;2023-01-27T10:21:01;102672.78;;;3.12;100.00
59757;BME280;45631;51.962;5.974;2023-01-27T10:23:39;102675.41;;;3.04;100.00
59757;BME280;45631;51.962;5.974;2023-01-27T10:26:21;102671.06;;;3.05;100.00
59757;BME280;45631;51.962;5.974;2023-01-27T10:28:56;102665.88;;;3.05;100.00
59757;BME280;45631;51.962;5.974;2023-01-27T10:31:32;102664.13;;;3.07;100.00
59757;BME280;45631;51.962;5.974;2023-01-27T10:34:07;102665.84;;;3.11;100.00
59757;BME280;45631;51.962;5.974;2023-01-27T10:36:45;102660.63;;;3.14;100.00
59757;BME280;45631;51.962;5.974;2023-01-27T10:39:24;102658.88;;;3.15;100.00
59757;BME280;45631;51.962;5.974;2023-01-27T10:42:06;102662.34;;;3.18;100.00
59757;BME280;45631;51.962;5.974;2023-01-27T10:44:48;102657.13;;;3.21;100.00
59757;BME280;45631;51.962;5.974;2023-01-27T10:47:29;102662.31;;;3.25;100.00
59757;BME280;45631;51.962;5.974;2023-01-27T10:50:04;102656.25;;;3.21;100.00
59757;BME280;45631;51.962;5.974;2023-01-27T10:52:39;102657.94;;;3.30;100.00
59757;BME280;45631;51.962;5.974;2023-01-27T10:55:15;102661.38;;;3.35;100.00
59757;BME280;45631;51.962;5.974;2023-01-27T10:57:47;102657.88;;;3.39;100.00
59757;BME280;45631;51.962;5.974;2023-01-27T11:00:27;102663.13;;;3.36;100.00
59757;BME280;45631;51.962;5.974;2023-01-27T11:03:21;102658.78;;;3.40;100.00
59757;BME280;45631;51.962;5.974;2023-01-27T11:05:55;102663.94;;;3.44;100.00
59757;BME280;45631;51.962;5.974;2023-01-27T11:08:25;102658.69;;;3.49;100.00
59757;BME280;45631;51.962;5.974;2023-01-27T11:10:58;102651.72;;;3.54;100.00
59757;BME280;45631;51.962;5.974;2023-01-27T11:13:46;102655.13;;;3.62;100.00
59757;BME280;45631;51.962;5.974;2023-01-27T11:16:16;102658.56;;;3.67;100.00
59757;BME280;45631;51.962;5.974;2023-01-27T11:18:52;102653.31;;;3.72;100.00
59757;BME280;45631;51.962;5.974;2023-01-27T11:21:25;102651.56;;;3.77;100.00
59757;BME280;45631;51.962;5.974;2023-01-27T11:23:55;102659.34;;;3.79;100.00
59757;BME280;45631;51.962;5.974;2023-01-27T11:26:30;102646.34;;;3.79;100.00
59757;BME280;45631;51.962;5.974;2023-01-27T11:29:15;102651.53;;;3.80;100.00
59757;BME280;45631;51.962;5.974;2023-01-27T11:31:52;102644.50;;;3.88;100.00
59757;BME280;45631;51.962;5.974;2023-01-27T11:34:28;102640.19;;;3.89;100.00
59757;BME280;45631;51.962;5.974;2023-01-27T11:36:58;102640.13;;;3.97;100.00
59757;BME280;45631;51.962;5.974;2023-01-27T11:39:30;102642.72;;;3.95;100.00
59757;BME280;45631;51.962;5.974;2023-01-27T11:42:00;102640.94;;;4.02;100.00
59757;BME280;45631;51.962;5.974;2023-01-27T11:44:31;102635.69;;;4.08;100.00
59757;BME280;45631;51.962;5.974;2023-01-27T11:47:02;102630.47;;;4.08;100.00
59757;BME280;45631;51.962;5.974;2023-01-27T11:49:34;102620.81;;;4.18;100.00
59757;BME280;45631;51.962;5.974;2023-01-27T11:52:08;102619.00;;;4.26;100.00
59757;BME280;45631;51.962;5.974;2023-01-27T11:54:43;102616.34;;;4.34;100.00
59757;BME280;45631;51.962;5.974;2023-01-27T11:57:17;102620.69;;;4.30;100.00
59757;BME280;45631;51.962;5.974;2023-01-27T11:59:50;102613.78;;;4.26;100.00
59757;BME280;45631;51.962;5.974;2023-01-27T12:02:26;102615.53;;;4.27;100.00
59757;BME280;45631;51.962;5.974;2023-01-27T12:05:00;102607.66;;;4.32;100.00
59757;BME280;45631;51.962;5.974;2023-01-27T12:07:40;102612.88;;;4.30;100.00
59757;BME280;45631;51.962;5.974;2023-01-27T12:10:23;102610.22;;;4.38;100.00
59757;BME280;45631;51.962;5.974;2023-01-27T12:12:51;102611.03;;;4.43;100.00
59757;BME280;45631;51.962;5.974;2023-01-27T12:15:24;102601.25;;;4.62;100.00
59757;BME280;45631;51.962;5.974;2023-01-27T12:17:55;102606.47;;;4.61;100.00
59757;BME280;45631;51.962;5.974;2023-01-27T12:20:36;102604.72;;;4.63;100.00
59757;BME280;45631;51.962;5.974;2023-01-27T12:23:17;102606.34;;;4.70;100.00
59757;BME280;45631;51.962;5.974;2023-01-27T12:25:51;102601.94;;;4.77;100.00
59757;BME280;45631;51.962;5.974;2023-01-27T12:28:26;102594.97;;;4.77;100.00
59757;BME280;45631;51.962;5.974;2023-01-27T12:31:04;102595.81;;;4.79;100.00
59757;BME280;45631;51.962;5.974;2023-01-27T12:33:36;102597.56;;;4.77;100.00
59757;BME280;45631;51.962;5.974;2023-01-27T12:36:11;102595.78;;;4.82;100.00
59757;BME280;45631;51.962;5.974;2023-01-27T12:38:44;102592.41;;;4.74;100.00
59757;BME280;45631;51.962;5.974;2023-01-27T12:41:21;102592.50;;;4.66;100.00
59757;BME280;45631;51.962;5.974;2023-01-27T12:43:52;102594.22;;;4.67;100.00
59757;BME280;45631;51.962;5.974;2023-01-27T12:46:24;102583.78;;;4.67;100.00
59757;BME280;45631;51.962;5.974;2023-01-27T12:48:58;102588.97;;;4.69;100.00
59757;BME280;45631;51.962;5.974;2023-01-27T12:51:37;102585.53;;;4.68;100.00
59757;BME280;45631;51.962;5.974;2023-01-27T12:54:20;102583.00;;;4.62;100.00
59757;BME280;45631;51.962;5.974;2023-01-27T12:56:50;102592.56;;;4.62;100.00
59757;BME280;45631;51.962;5.974;2023-01-27T12:59:22;102590.75;;;4.68;100.00
59757;BME280;45631;51.962;5.974;2023-01-27T13:02:00;102592.66;;;4.55;100.00
59757;BME280;45631;51.962;5.974;2023-01-27T13:04:29;102588.34;;;4.51;100.00
59757;BME280;45631;51.962;5.974;2023-01-27T13:07:06;102591.78;;;4.53;100.00
59757;BME280;45631;51.962;5.974;2023-01-27T13:09:37;102598.72;;;4.56;100.00
59757;BME280;45631;51.962;5.974;2023-01-27T13:12:15;102588.22;;;4.62;100.00
59757;BME280;45631;51.962;5.974;2023-01-27T13:14:44;102600.34;;;4.66;100.00